createdAt,value
2022-11-19T00:01:25.559Z,5.53
2022-11-19T00:03:53.388Z,4.43
2022-11-19T00:06:25.569Z,4.00
2022-11-19T00:08:53.004Z,4.73
2022-11-19T00:11:40.701Z,2.37
2022-11-19T00:14:09.227Z,1.60
2022-11-19T00:16:36.590Z,2.73
2022-11-19T00:19:04.425Z,5.10
2022-11-19T00:21:31.487Z,3.77
2022-11-19T00:23:58.723Z,2.43
2022-11-19T00:26:25.813Z,6.30
2022-11-19T00:28:52.823Z,4.07
2022-11-19T00:31:19.880Z,4.03
2022-11-19T00:33:47.066Z,3.13
2022-11-19T00:36:15.540Z,5.43
2022-11-19T00:38:43.429Z,11.30
2022-11-19T00:41:11.003Z,4.30
2022-11-19T00:43:47.291Z,4.73
2022-11-19T00:46:32.505Z,8.33
2022-11-19T00:49:00.257Z,8.67
2022-11-19T00:51:30.627Z,4.70
2022-11-19T00:53:57.804Z,5.27
2022-11-19T00:56:27.004Z,6.27
2022-11-19T00:58:54.600Z,7.97
2022-11-19T01:01:23.716Z,6.70
2022-11-19T01:03:51.100Z,7.03
2022-11-19T01:06:20.860Z,5.93
2022-11-19T01:08:49.399Z,6.63
2022-11-19T01:11:19.786Z,4.87
2022-11-19T01:13:47.228Z,9.97
2022-11-19T01:16:20.081Z,6.10
2022-11-19T01:18:48.915Z,6.20
2022-11-19T01:21:17.534Z,11.87
2022-11-19T01:23:45.058Z,11.67
2022-11-19T01:26:13.148Z,9.70
2022-11-19T01:28:40.866Z,12.57
2022-11-19T01:31:09.766Z,13.77
2022-11-19T01:33:37.017Z,14.90
2022-11-19T01:36:11.119Z,13.83
2022-11-19T01:38:38.419Z,13.00
2022-11-19T01:41:06.209Z,10.47
2022-11-19T01:43:45.690Z,11.97
2022-11-19T01:46:15.605Z,12.93
2022-11-19T01:49:08.369Z,11.50
2022-11-19T01:51:57.490Z,14.80
2022-11-19T01:54:39.320Z,14.87
2022-11-19T01:57:13.394Z,15.83
2022-11-19T01:59:42.186Z,10.40
2022-11-19T02:02:09.197Z,9.97
2022-11-19T02:04:36.785Z,7.93
2022-11-19T02:07:04.757Z,8.47
2022-11-19T02:09:33.418Z,7.33
2022-11-19T02:12:16.105Z,10.10
2022-11-19T02:15:35.270Z,6.43
2022-11-19T02:18:36.413Z,11.73
2022-11-19T02:21:33.761Z,10.93
2022-11-19T02:24:15.316Z,9.93
2022-11-19T02:27:31.448Z,10.90
2022-11-19T02:30:18.770Z,12.43
2022-11-19T02:33:14.607Z,8.20
2022-11-19T02:35:48.596Z,10.33
2022-11-19T02:38:45.860Z,9.90
2022-11-19T02:41:34.706Z,9.90
2022-11-19T02:44:45.249Z,13.13
2022-11-19T02:47:25.981Z,11.33
2022-11-19T02:49:57.784Z,8.60
2022-11-19T02:52:25.170Z,9.43
2022-11-19T02:54:52.263Z,7.13
2022-11-19T02:57:19.418Z,10.47
2022-11-19T03:00:16.726Z,13.40
2022-11-19T03:03:15.291Z,6.03
2022-11-19T03:05:48.698Z,8.83
2022-11-19T03:08:15.941Z,12.20
2022-11-19T03:10:55.113Z,8.37
2022-11-19T03:13:45.171Z,7.70
2022-11-19T03:16:39.127Z,12.37
2022-11-19T03:19:55.766Z,10.60
2022-11-19T03:22:30.692Z,9.70
2022-11-19T03:25:12.423Z,6.37
2022-11-19T03:27:43.683Z,9.50
2022-11-19T03:30:12.801Z,11.47
2022-11-19T03:33:07.207Z,9.80
2022-11-19T03:35:45.222Z,12.47
2022-11-19T03:38:18.964Z,11.63
2022-11-19T03:40:48.200Z,8.93
2022-11-19T03:43:20.117Z,12.63
2022-11-19T03:45:48.994Z,12.33
2022-11-19T03:48:18.381Z,11.07
2022-11-19T03:50:53.771Z,15.00
2022-11-19T03:53:22.421Z,11.80
2022-11-19T03:56:10.038Z,10.73
2022-11-19T03:58:39.623Z,11.47
2022-11-19T04:01:07.215Z,11.10
2022-11-19T04:03:34.469Z,12.50
2022-11-19T04:06:01.536Z,12.47
2022-11-19T04:08:28.645Z,11.10
2022-11-19T04:10:55.837Z,9.80
2022-11-19T04:13:22.895Z,13.43
2022-11-19T04:15:50.002Z,13.93
2022-11-19T04:18:17.085Z,14.20
2022-11-19T04:20:47.270Z,11.87
2022-11-19T04:23:14.348Z,12.50
2022-11-19T04:25:46.303Z,12.33
2022-11-19T04:28:13.513Z,17.07
2022-11-19T04:30:40.567Z,13.43
2022-11-19T04:33:07.582Z,17.50
2022-11-19T04:35:34.585Z,16.53
2022-11-19T04:38:01.660Z,22.67
2022-11-19T04:40:28.747Z,16.03
2022-11-19T04:42:55.749Z,17.47
2022-11-19T04:45:22.784Z,18.03
2022-11-19T04:47:49.806Z,17.90
2022-11-19T04:50:16.931Z,16.53
2022-11-19T04:52:44.138Z,14.43
2022-11-19T04:55:11.194Z,23.20
2022-11-19T04:57:38.394Z,17.77
2022-11-19T05:00:06.556Z,18.97
2022-11-19T05:02:34.075Z,17.93
2022-11-19T05:05:01.179Z,22.17
2022-11-19T05:07:28.243Z,21.07
2022-11-19T05:09:55.277Z,21.63
2022-11-19T05:12:22.484Z,20.43
2022-11-19T05:14:49.508Z,16.30
2022-11-19T05:17:16.606Z,19.63
2022-11-19T05:19:43.626Z,21.20
2022-11-19T05:22:10.890Z,21.87
2022-11-19T05:24:37.950Z,21.60
2022-11-19T05:27:05.188Z,22.20
2022-11-19T05:29:32.209Z,17.27
2022-11-19T05:31:59.377Z,18.37
2022-11-19T05:34:26.429Z,21.17
2022-11-19T05:36:53.439Z,22.67
2022-11-19T05:39:22.376Z,29.37
2022-11-19T05:41:49.957Z,25.23
2022-11-19T05:44:17.413Z,42.23
2022-11-19T05:46:44.505Z,28.93
2022-11-19T05:49:11.966Z,23.20
2022-11-19T05:51:39.051Z,22.57
2022-11-19T05:54:06.330Z,22.67
2022-11-19T05:56:33.464Z,35.73
2022-11-19T05:59:00.492Z,24.60
2022-11-19T06:01:28.787Z,27.13
2022-11-19T06:03:56.600Z,29.70
2022-11-19T06:06:23.933Z,32.10
2022-11-19T06:08:51.014Z,26.20
2022-11-19T06:11:36.824Z,25.33
2022-11-19T06:14:04.290Z,25.77
2022-11-19T06:16:31.310Z,22.27
2022-11-19T06:18:58.312Z,24.20
2022-11-19T06:21:25.355Z,20.43
2022-11-19T06:23:52.363Z,23.00
2022-11-19T06:26:23.745Z,24.83
2022-11-19T06:28:51.129Z,24.13
2022-11-19T06:31:18.373Z,20.37
2022-11-19T06:33:45.821Z,162.87
2022-11-19T06:36:12.838Z,32.50
2022-11-19T06:38:40.049Z,77.23
2022-11-19T06:41:07.139Z,895.37
2022-11-19T06:43:34.197Z,994.37
2022-11-19T06:46:01.208Z,732.67
2022-11-19T06:48:28.273Z,1127.40
2022-11-19T06:50:55.399Z,1004.47
2022-11-19T06:53:22.547Z,474.03
2022-11-19T06:55:55.742Z,537.40
2022-11-19T06:58:22.875Z,590.77
2022-11-19T07:00:49.936Z,467.07
2022-11-19T07:03:16.999Z,221.90
2022-11-19T07:05:44.435Z,322.67
2022-11-19T07:08:11.407Z,338.67
2022-11-19T07:10:38.495Z,357.73
2022-11-19T07:13:05.570Z,270.37
2022-11-19T07:15:32.754Z,254.47
2022-11-19T07:18:01.517Z,303.93
2022-11-19T07:20:28.892Z,122.53
2022-11-19T07:22:59.163Z,263.57
2022-11-19T07:25:27.379Z,181.07
2022-11-19T07:27:54.751Z,99.73
2022-11-19T07:30:21.828Z,52.60
2022-11-19T07:32:48.884Z,38.63
2022-11-19T07:35:16.091Z,31.93
2022-11-19T07:37:43.096Z,30.57
2022-11-19T07:40:11.282Z,104.43
2022-11-19T07:42:50.368Z,69.80
2022-11-19T07:45:19.387Z,51.13
2022-11-19T07:47:47.031Z,31.10
2022-11-19T07:50:14.387Z,34.43
2022-11-19T07:52:41.568Z,123.83
2022-11-19T07:55:09.344Z,25.67
2022-11-19T07:57:36.504Z,48.83
2022-11-19T08:00:05.834Z,30.60
2022-11-19T08:02:39.668Z,57.53
2022-11-19T08:05:07.079Z,79.10
2022-11-19T08:07:34.150Z,39.73
2022-11-19T08:10:01.193Z,48.50
2022-11-19T08:12:29.341Z,70.80
2022-11-19T08:14:56.710Z,24.70
2022-11-19T08:17:42.479Z,28.30
2022-11-19T08:20:10.588Z,90.43
2022-11-19T08:22:38.808Z,75.73
2022-11-19T08:25:06.453Z,113.17
2022-11-19T08:27:33.594Z,113.67
2022-11-19T08:30:00.750Z,29.00
2022-11-19T08:32:27.786Z,37.90
2022-11-19T08:34:54.829Z,36.63
2022-11-19T08:37:21.930Z,28.13
2022-11-19T08:39:49.057Z,25.03
2022-11-19T08:42:34.580Z,24.60
2022-11-19T08:45:01.976Z,25.20
2022-11-19T08:47:29.053Z,28.93
2022-11-19T08:49:56.206Z,24.93
2022-11-19T08:52:23.326Z,21.83
2022-11-19T08:54:50.384Z,19.67
2022-11-19T08:57:17.448Z,23.87
2022-11-19T08:59:44.596Z,21.00
2022-11-19T09:02:11.681Z,14.33
2022-11-19T09:04:38.936Z,21.53
2022-11-19T09:07:05.977Z,10.67
2022-11-19T09:09:33.242Z,13.50
2022-11-19T09:12:00.357Z,11.30
2022-11-19T09:14:27.587Z,16.00
2022-11-19T09:16:54.726Z,15.18
2022-11-19T09:19:21.751Z,16.97
2022-11-19T09:21:49.579Z,21.70
2022-11-19T09:24:16.723Z,13.03
2022-11-19T09:26:46.569Z,16.07
2022-11-19T09:29:17.474Z,13.77
2022-11-19T09:31:44.454Z,10.10
2022-11-19T09:34:11.500Z,10.43
2022-11-19T09:36:38.644Z,12.87
2022-11-19T09:39:05.683Z,11.27
2022-11-19T09:42:15.289Z,8.87
2022-11-19T09:45:20.032Z,8.60
2022-11-19T09:48:20.927Z,12.67
2022-11-19T09:50:59.551Z,8.73
2022-11-19T09:53:32.630Z,8.23
2022-11-19T09:56:00.722Z,12.73
2022-11-19T09:58:36.774Z,12.87
2022-11-19T10:01:04.722Z,9.93
2022-11-19T10:03:33.862Z,8.83
2022-11-19T10:06:36.451Z,8.77
2022-11-19T10:09:48.724Z,9.03
2022-11-19T10:13:12.172Z,9.07
2022-11-19T10:16:26.196Z,8.67
2022-11-19T10:19:26.703Z,9.80
2022-11-19T10:22:14.491Z,9.50
2022-11-19T10:24:43.665Z,8.00
2022-11-19T10:27:19.082Z,6.90
2022-11-19T10:29:47.823Z,8.50
2022-11-19T10:32:21.413Z,7.45
2022-11-19T10:34:49.682Z,6.93
2022-11-19T10:37:18.568Z,6.23
2022-11-19T10:45:31.544Z,6.13
2022-11-19T10:48:38.594Z,7.57
2022-11-19T10:51:21.239Z,6.03
2022-11-19T10:53:49.433Z,7.37
2022-11-19T10:56:21.392Z,9.17
2022-11-19T10:59:06.920Z,7.70
2022-11-19T11:01:39.049Z,5.63
2022-11-19T11:04:23.746Z,6.60
2022-11-19T11:07:05.436Z,8.30
2022-11-19T11:09:38.629Z,5.70
2022-11-19T11:12:50.916Z,5.20
2022-11-19T11:15:27.629Z,4.47
2022-11-19T11:18:10.602Z,5.37
2022-11-19T11:20:40.316Z,4.47
2022-11-19T11:23:22.492Z,8.57
2022-11-19T11:26:12.057Z,5.28
2022-11-19T11:29:03.046Z,5.32
2022-11-19T11:31:39.552Z,5.82
2022-11-19T11:34:27.135Z,6.22
2022-11-19T11:36:55.542Z,6.97
2022-11-19T11:39:31.372Z,7.47
2022-11-19T11:42:06.233Z,6.40
2022-11-19T11:44:36.934Z,8.90
2022-11-19T11:47:23.688Z,6.80
2022-11-19T11:50:25.548Z,5.40
2022-11-19T11:52:55.124Z,5.20
2022-11-19T11:55:42.416Z,7.50
2022-11-19T11:58:34.743Z,5.27
2022-11-19T12:01:15.813Z,7.60
2022-11-19T12:04:01.563Z,6.80
2022-11-19T12:06:41.760Z,2.83
2022-11-19T12:09:34.529Z,2.50
2022-11-19T12:12:28.151Z,4.97
2022-11-19T12:15:24.756Z,5.70
2022-11-19T12:18:26.990Z,5.37
2022-11-19T12:21:11.495Z,5.63
2022-11-19T12:23:58.736Z,6.43
2022-11-19T12:26:54.367Z,5.60
2022-11-19T12:29:35.499Z,6.03
2022-11-19T12:33:05.651Z,4.47
2022-11-19T13:14:46.760Z,9.87
2022-11-19T13:21:09.568Z,3.90
2022-11-19T13:23:46.031Z,10.13
2022-11-19T13:26:32.139Z,6.60
2022-11-19T13:29:39.909Z,5.93
2022-11-19T13:32:20.821Z,6.90
2022-11-19T13:35:10.498Z,6.63
2022-11-19T13:37:48.377Z,7.70
2022-11-19T13:40:51.029Z,6.13
2022-11-19T13:43:38.872Z,10.30
2022-11-19T13:46:41.011Z,9.30
2022-11-19T13:49:34.469Z,4.97
2022-11-19T13:52:06.147Z,6.77
2022-11-19T13:54:39.929Z,7.57
2022-11-19T13:57:09.609Z,6.40
2022-11-19T13:59:50.161Z,7.80
2022-11-19T14:03:05.115Z,5.97
2022-11-19T14:06:19.979Z,6.23
2022-11-19T14:09:37.111Z,9.33
2022-11-19T14:12:40.723Z,8.23
2022-11-19T14:16:05.739Z,4.97
2022-11-19T14:19:05.259Z,3.87
2022-11-19T14:22:04.620Z,5.67
2022-11-19T14:25:10.828Z,7.33
2022-11-19T14:27:38.140Z,9.73
2022-11-19T14:30:13.785Z,7.43
2022-11-19T14:32:47.203Z,7.17
2022-11-19T14:35:39.622Z,3.60
2022-11-19T14:38:33.666Z,10.40
2022-11-19T14:41:06.310Z,8.97
2022-11-19T14:44:08.847Z,5.73
2022-11-19T14:46:47.989Z,8.37
2022-11-19T14:49:35.550Z,6.13
2022-11-19T14:52:03.373Z,7.03
2022-11-19T14:54:39.728Z,7.03
2022-11-19T14:57:35.866Z,8.60
2022-11-19T15:00:35.411Z,6.27
2022-11-19T15:03:06.617Z,9.13
2022-11-19T15:05:36.521Z,5.77
2022-11-19T15:08:46.296Z,12.33
2022-11-19T15:11:15.155Z,7.65
2022-11-19T15:14:08.998Z,7.53
2022-11-19T15:16:37.228Z,3.67
2022-11-19T15:19:57.993Z,8.73
2022-11-19T15:23:19.010Z,7.57
2022-11-19T15:55:19.620Z,5.27
2022-11-19T15:57:51.252Z,10.00
2022-11-19T16:00:22.428Z,4.80
2022-11-19T16:02:51.487Z,7.13
2022-11-19T16:05:36.584Z,11.77
2022-11-19T16:08:14.899Z,7.70
2022-11-19T16:10:46.478Z,7.33
2022-11-19T16:13:43.850Z,11.07
2022-11-19T16:16:42.764Z,12.93
2022-11-19T16:19:12.798Z,7.57
2022-11-19T16:21:41.748Z,7.43
2022-11-19T16:24:32.598Z,11.00
2022-11-19T16:27:02.150Z,9.03
2022-11-19T16:29:32.975Z,5.83
2022-11-19T16:32:00.245Z,7.27
2022-11-19T16:34:31.737Z,7.73
2022-11-19T16:36:59.531Z,8.40
2022-11-19T16:39:29.241Z,7.07
2022-11-19T16:42:17.230Z,7.17
2022-11-19T16:45:16.899Z,7.33
2022-11-19T16:47:55.664Z,6.87
2022-11-19T16:50:36.499Z,7.57
2022-11-19T16:53:06.324Z,7.93
2022-11-19T16:55:43.089Z,10.30
2022-11-19T16:58:25.511Z,7.47
2022-11-19T17:00:55.864Z,6.63
2022-11-19T17:03:35.252Z,11.03
2022-11-19T17:06:04.604Z,11.13
2022-11-19T17:08:34.458Z,7.60
2022-11-19T17:11:56.891Z,8.83
2022-11-19T17:14:51.992Z,8.80
2022-11-19T17:17:40.236Z,10.90
2022-11-19T17:20:49.803Z,11.13
2022-11-19T17:23:22.082Z,8.77
2022-11-19T17:26:15.920Z,13.47
2022-11-19T17:28:47.651Z,4.67
2022-11-19T17:31:26.479Z,6.33
2022-11-19T17:34:26.560Z,6.37
2022-11-19T17:36:53.625Z,5.80
2022-11-19T17:39:25.280Z,5.60
2022-11-19T17:42:14.881Z,4.83
2022-11-19T17:44:42.375Z,3.13
2022-11-19T17:47:22.684Z,5.83
2022-11-19T17:49:50.750Z,4.47
2022-11-19T17:52:22.839Z,8.53
2022-11-19T17:54:51.741Z,3.50
2022-11-19T17:57:18.814Z,1.93
2022-11-19T17:59:45.954Z,3.10
2022-11-19T18:02:18.853Z,4.03
2022-11-19T18:04:47.180Z,3.50
2022-11-19T18:07:15.156Z,2.77
2022-11-19T18:09:42.711Z,1.70
2022-11-19T18:12:18.182Z,1.20
2022-11-19T18:14:46.258Z,2.90
2022-11-19T18:17:14.680Z,1.23
2022-11-19T18:19:42.074Z,2.40
2022-11-19T18:22:18.469Z,0.80
2022-11-19T18:24:50.222Z,1.77
2022-11-19T18:27:17.508Z,3.43
2022-11-19T18:29:44.681Z,2.90
2022-11-19T18:32:12.641Z,2.57
2022-11-19T18:34:39.719Z,1.27
2022-11-19T18:37:06.783Z,1.80
2022-11-19T18:39:34.044Z,1.83
2022-11-19T18:42:01.129Z,1.20
2022-11-19T18:44:34.548Z,1.20
2022-11-19T18:47:11.009Z,3.57
2022-11-19T18:49:38.324Z,3.07
2022-11-19T18:52:12.948Z,2.73
2022-11-19T18:54:40.287Z,2.73
2022-11-19T18:57:07.363Z,1.33
2022-11-19T18:59:34.474Z,1.40
2022-11-19T19:02:01.780Z,1.87
2022-11-19T19:04:28.895Z,0.63
2022-11-19T19:06:56.152Z,1.43
2022-11-19T19:09:23.550Z,2.40
2022-11-19T19:12:13.559Z,0.93
2022-11-19T19:14:42.777Z,0.80
2022-11-19T19:17:10.225Z,1.70
2022-11-19T19:19:38.029Z,2.37
2022-11-19T19:22:05.961Z,2.63
2022-11-19T19:24:33.183Z,3.33
2022-11-19T19:27:01.480Z,1.73
2022-11-19T19:29:28.564Z,1.87
2022-11-19T19:31:55.671Z,2.37
2022-11-19T19:34:22.774Z,2.77
2022-11-19T19:36:53.361Z,1.47
2022-11-19T19:39:21.489Z,1.33
2022-11-19T19:41:49.448Z,2.97
2022-11-19T19:44:17.160Z,1.83
2022-11-19T19:46:48.469Z,2.83
2022-11-19T19:49:15.915Z,2.13
2022-11-19T19:51:43.228Z,1.27
2022-11-19T19:54:10.323Z,1.90
2022-11-19T19:56:37.484Z,2.57
2022-11-19T19:59:04.586Z,3.40
2022-11-19T20:01:34.229Z,2.47
2022-11-19T20:04:06.600Z,2.17
2022-11-19T20:06:35.474Z,5.93
2022-11-19T20:09:09.006Z,3.47
2022-11-19T20:11:37.198Z,3.47
2022-11-19T20:14:04.970Z,2.73
2022-11-19T20:16:32.983Z,3.10
2022-11-19T20:19:01.082Z,5.73
2022-11-19T20:21:34.042Z,4.73
2022-11-19T20:24:02.515Z,7.93
2022-11-19T20:26:31.977Z,4.03
2022-11-19T20:29:04.245Z,6.97
2022-11-19T20:31:32.765Z,5.47
2022-11-19T20:34:02.039Z,7.63
2022-11-19T20:36:30.915Z,5.93
2022-11-19T20:38:57.971Z,8.20
2022-11-19T20:41:45.586Z,5.93
2022-11-19T20:44:25.937Z,9.23
2022-11-19T20:47:03.275Z,6.63
2022-11-19T20:49:33.210Z,7.87
2022-11-19T20:52:00.337Z,8.37
2022-11-19T20:54:28.588Z,10.20
2022-11-19T20:56:56.606Z,10.07
2022-11-19T20:59:25.439Z,9.43
2022-11-19T21:01:54.161Z,8.03
2022-11-19T21:04:22.450Z,10.07
2022-11-19T21:06:50.132Z,10.33
2022-11-19T21:09:19.706Z,7.33
2022-11-19T21:11:47.585Z,8.00
2022-11-19T21:14:14.700Z,6.33
2022-11-19T21:16:41.812Z,11.17
2022-11-19T21:19:10.486Z,10.73
2022-11-19T21:21:37.973Z,8.90
2022-11-19T21:24:05.694Z,13.37
2022-11-19T21:26:33.163Z,12.17
2022-11-19T21:29:00.834Z,9.20
2022-11-19T21:31:39.884Z,12.73
2022-11-19T21:34:18.001Z,10.13
2022-11-19T21:36:47.128Z,10.77
2022-11-19T21:39:16.547Z,20.27
2022-11-19T21:41:44.407Z,10.67
2022-11-19T21:44:14.269Z,8.27
2022-11-19T21:46:43.772Z,12.53
2022-11-19T21:49:10.825Z,11.40
2022-11-19T21:51:37.952Z,9.83
2022-11-19T21:54:05.257Z,10.03
2022-11-19T21:56:38.223Z,8.60
2022-11-19T21:59:06.698Z,10.20
2022-11-19T22:01:33.783Z,9.43
2022-11-19T22:04:00.829Z,10.27
2022-11-19T22:06:27.995Z,12.07
2022-11-19T22:08:55.460Z,9.10
2022-11-19T22:11:32.181Z,8.67
2022-11-19T22:14:08.001Z,10.20
2022-11-19T22:16:37.896Z,12.17
2022-11-19T22:19:05.791Z,9.90
2022-11-19T22:21:33.148Z,9.73
2022-11-19T22:24:00.496Z,10.57
2022-11-19T22:26:27.721Z,10.80
2022-11-19T22:28:55.402Z,13.70
2022-11-19T22:31:23.107Z,10.43
2022-11-19T22:33:51.912Z,7.03
2022-11-19T22:36:20.500Z,9.77
2022-11-19T22:38:47.702Z,12.20
2022-11-19T22:41:20.233Z,12.93
2022-11-19T22:43:47.594Z,6.93
2022-11-19T22:46:15.141Z,15.03
2022-11-19T22:48:42.483Z,12.97
2022-11-19T22:51:15.919Z,12.10
2022-11-19T22:53:43.911Z,10.13
2022-11-19T22:56:13.376Z,19.33
2022-11-19T22:58:40.771Z,12.07
2022-11-19T23:01:15.288Z,12.43
2022-11-19T23:03:42.469Z,13.07
2022-11-19T23:06:09.543Z,8.80
2022-11-19T23:08:37.516Z,11.87
2022-11-19T23:11:06.283Z,13.30
2022-11-19T23:13:39.167Z,8.00
2022-11-19T23:16:18.302Z,13.43
2022-11-19T23:18:51.200Z,9.50
2022-11-19T23:21:26.892Z,9.77
2022-11-19T23:23:54.275Z,8.97
2022-11-19T23:26:23.726Z,8.00
2022-11-19T23:28:51.964Z,9.47
2022-11-19T23:31:27.125Z,8.20
2022-11-19T23:33:59.086Z,5.63
2022-11-19T23:36:32.638Z,10.03
2022-11-19T23:39:00.076Z,9.20
2022-11-19T23:41:27.798Z,11.13
2022-11-19T23:43:56.170Z,8.07
2022-11-19T23:46:34.052Z,8.80
2022-11-19T23:49:02.459Z,10.20
2022-11-19T23:51:40.327Z,10.53
2022-11-19T23:54:07.447Z,9.77
2022-11-19T23:56:36.387Z,12.33
2022-11-19T23:59:04.863Z,7.80
